Terminal Aerodrome Forecast
Issued by NWS

Home | Current Version | Previous Version | Graphics & Text | Print | Product List | Glossary On
Versions: 1 2 3 4 5 6 7 8 9 10 11 12 13 14 15 16 17
000
FTUS43 KIWX 282340
TAFSBN
TAF
KSBN 282340Z 2900/2924 VRB03KT P6SM SCT030 BKN200
     FM290600 VRB03KT 6SM BR FEW200
      TEMPO 2908/2912 3SM BR
     FM291200 09006KT P6SM FEW250=

USA.gov is the U.S. government's official web portal to all federal, state and local government web resources and services.